createdAt,value
2023-04-27T00:00:39.392Z,9.443636
2023-04-27T00:01:39.490Z,9.443624
2023-04-27T00:02:39.570Z,9.443620
2023-04-27T00:03:39.552Z,9.443614
2023-04-27T00:04:39.687Z,9.443667
2023-04-27T00:05:39.737Z,9.443700
2023-04-27T00:06:39.379Z,9.443671
2023-04-27T00:07:39.376Z,9.443654
2023-04-27T00:08:40.200Z,9.443637
2023-04-27T00:09:39.321Z,9.443617
2023-04-27T00:10:39.319Z,9.443668
2023-04-27T00:11:39.377Z,9.443695
2023-04-27T00:12:39.336Z,9.443716
2023-04-27T00:13:39.341Z,9.443675
2023-04-27T00:14:39.285Z,9.443688
2023-04-27T00:15:39.306Z,9.443718
2023-04-27T00:16:40.315Z,9.443707
2023-04-27T00:17:39.356Z,9.443623
2023-04-27T00:18:39.269Z,9.443564
2023-04-27T00:19:39.278Z,9.443649
2023-04-27T00:20:39.270Z,9.443588
2023-04-27T00:21:39.261Z,9.443591
2023-04-27T00:22:40.239Z,9.443671
2023-04-27T00:23:39.241Z,9.443566
2023-04-27T00:24:39.270Z,9.443579
2023-04-27T00:25:39.231Z,9.443630
2023-04-27T00:26:39.258Z,9.443663
2023-04-27T00:27:39.234Z,9.443685
2023-04-27T00:28:39.206Z,9.443679
2023-04-27T00:29:39.286Z,9.443692
2023-04-27T00:30:39.181Z,9.443549
2023-04-27T00:31:39.196Z,9.443627
2023-04-27T00:32:39.212Z,9.443710
2023-04-27T00:33:39.196Z,9.443724
2023-04-27T00:34:39.167Z,9.443708
2023-04-27T00:35:39.160Z,9.443718
2023-04-27T00:36:39.162Z,9.443664
2023-04-27T00:37:39.203Z,9.443712
2023-04-27T00:38:39.127Z,9.443757
2023-04-27T00:39:39.158Z,9.443593
2023-04-27T00:40:39.132Z,9.443625
2023-04-27T00:41:39.127Z,9.443698
2023-04-27T00:42:39.136Z,9.443742
2023-04-27T00:43:39.124Z,9.443649
2023-04-27T00:44:39.930Z,9.443695
2023-04-27T00:45:40.168Z,9.443588
2023-04-27T00:46:39.123Z,9.443611
2023-04-27T00:47:39.117Z,9.443650
2023-04-27T00:48:39.078Z,9.443631
2023-04-27T00:49:39.085Z,9.443645
2023-04-27T00:50:39.110Z,9.443499
2023-04-27T00:51:39.090Z,9.443602
2023-04-27T00:52:39.052Z,9.443615
2023-04-27T00:53:39.085Z,9.443615
2023-04-27T00:54:39.033Z,9.443670
2023-04-27T00:55:39.055Z,9.443586
2023-04-27T00:56:39.044Z,9.443484
2023-04-27T00:57:39.095Z,9.443630
2023-04-27T00:58:39.032Z,9.443703
2023-04-27T00:59:39.029Z,9.443789
2023-04-27T01:00:39.027Z,9.443764
2023-04-27T01:01:39.064Z,9.443697
2023-04-27T01:02:39.336Z,9.443686
2023-04-27T01:03:39.238Z,9.443723
2023-04-27T01:04:39.070Z,9.443719
2023-04-27T01:05:38.981Z,9.443731
2023-04-27T01:06:38.973Z,9.443706
2023-04-27T01:07:39.011Z,9.443715
2023-04-27T01:08:39.014Z,9.443741
2023-04-27T01:09:38.961Z,9.443846
2023-04-27T01:10:38.952Z,9.443719
2023-04-27T01:11:38.970Z,9.443801
2023-04-27T01:12:38.969Z,9.443829
2023-04-27T01:13:38.951Z,9.443741
2023-04-27T01:14:38.934Z,9.443836
2023-04-27T01:15:38.936Z,9.443826
2023-04-27T01:16:38.960Z,9.443802
2023-04-27T01:17:38.973Z,9.443807
2023-04-27T01:18:38.889Z,9.443832
2023-04-27T01:19:38.895Z,9.443766
2023-04-27T01:20:39.080Z,9.443704
2023-04-27T01:21:38.890Z,9.443735
2023-04-27T01:22:38.871Z,9.443767
2023-04-27T01:23:38.878Z,9.443813
2023-04-27T01:24:38.858Z,9.443836
2023-04-27T01:25:38.892Z,9.443858
2023-04-27T01:26:38.888Z,9.443822
2023-04-27T01:27:38.837Z,9.443794
2023-04-27T01:28:38.889Z,9.443842
2023-04-27T01:29:38.815Z,9.443843
2023-04-27T01:30:38.829Z,9.443788
2023-04-27T01:31:38.890Z,9.443810
2023-04-27T01:32:38.884Z,9.443834
2023-04-27T01:33:39.825Z,9.443817
2023-04-27T01:34:38.806Z,9.443804
2023-04-27T01:35:38.781Z,9.443805
2023-04-27T01:36:38.789Z,9.443758
2023-04-27T01:37:38.790Z,9.443707
2023-04-27T01:38:38.795Z,9.443709
2023-04-27T01:39:38.808Z,9.443781
2023-04-27T01:40:38.746Z,9.443761
2023-04-27T01:41:38.762Z,9.443696
2023-04-27T01:42:38.754Z,9.443657
2023-04-27T01:43:38.741Z,9.443624
2023-04-27T01:44:38.769Z,9.443675
2023-04-27T01:45:38.754Z,9.443685
2023-04-27T01:46:38.814Z,9.443689
2023-04-27T01:47:38.759Z,9.443710
2023-04-27T01:48:38.776Z,9.443685
2023-04-27T01:49:38.744Z,9.443706
2023-04-27T01:50:38.724Z,9.443681
2023-04-27T01:51:38.696Z,9.443667
2023-04-27T01:52:38.704Z,9.443651
2023-04-27T01:53:38.754Z,9.443660
2023-04-27T01:54:38.698Z,9.443673
2023-04-27T01:55:38.683Z,9.443688
2023-04-27T01:56:38.662Z,9.443713
2023-04-27T01:57:38.705Z,9.443719
2023-04-27T01:58:38.738Z,9.443708
2023-04-27T01:59:38.658Z,9.443725
2023-04-27T02:00:38.623Z,9.443692
2023-04-27T02:01:38.742Z,9.443695
2023-04-27T02:02:38.728Z,9.443709
2023-04-27T02:03:38.860Z,9.443752
2023-04-27T02:04:38.775Z,9.443747
2023-04-27T02:05:38.600Z,9.443769
2023-04-27T02:06:38.638Z,9.443723
2023-04-27T02:07:38.613Z,9.443707
2023-04-27T02:08:38.608Z,9.443705
2023-04-27T02:09:38.623Z,9.443693
2023-04-27T02:10:38.589Z,9.443793
2023-04-27T02:11:38.597Z,9.443798
2023-04-27T02:12:38.563Z,9.443783
2023-04-27T02:13:38.603Z,9.443774
2023-04-27T02:14:38.547Z,9.443796
2023-04-27T02:15:38.552Z,9.443814
2023-04-27T02:16:38.606Z,9.443800
2023-04-27T02:17:38.612Z,9.443748
2023-04-27T02:18:38.627Z,9.443729
2023-04-27T02:19:39.526Z,9.443735
2023-04-27T02:20:38.544Z,9.443743
2023-04-27T02:21:38.507Z,9.443718
2023-04-27T02:22:38.534Z,9.443732
2023-04-27T02:23:38.561Z,9.443782
2023-04-27T02:24:38.494Z,9.443685
2023-04-27T02:25:38.555Z,9.443660
2023-04-27T02:26:38.547Z,9.443694
2023-04-27T02:27:38.531Z,9.443685
2023-04-27T02:28:38.506Z,9.443667
2023-04-27T02:29:38.517Z,9.443687
2023-04-27T02:30:38.444Z,9.443739
2023-04-27T02:31:38.489Z,9.443715
2023-04-27T02:32:38.495Z,9.443728
2023-04-27T02:33:38.467Z,9.443677
2023-04-27T02:34:38.430Z,9.443687
2023-04-27T02:35:38.477Z,9.443665
2023-04-27T02:36:38.437Z,9.443633
2023-04-27T02:37:38.433Z,9.443625
2023-04-27T02:38:38.450Z,9.443688
2023-04-27T02:39:38.462Z,9.443691
2023-04-27T02:40:38.397Z,9.443595
2023-04-27T02:41:38.397Z,9.443617
2023-04-27T02:42:38.397Z,9.443591
2023-04-27T02:43:38.389Z,9.443682
2023-04-27T02:44:38.380Z,9.443683
2023-04-27T02:45:38.440Z,9.443727
2023-04-27T02:46:38.411Z,9.443725
2023-04-27T02:47:38.386Z,9.443645
2023-04-27T02:48:38.390Z,9.443654
2023-04-27T02:49:38.355Z,9.443785
2023-04-27T02:50:38.411Z,9.443798
2023-04-27T02:51:38.352Z,9.443727
2023-04-27T02:52:38.316Z,9.443803
2023-04-27T02:53:38.313Z,9.443748
2023-04-27T02:54:38.336Z,9.443725
2023-04-27T02:55:38.308Z,9.443744
2023-04-27T02:56:38.332Z,9.443675
2023-04-27T02:57:38.306Z,9.443713
2023-04-27T02:58:38.309Z,9.443678
2023-04-27T02:59:38.354Z,9.443796
2023-04-27T03:00:38.266Z,9.443765
2023-04-27T03:01:38.398Z,9.443770
2023-04-27T03:02:38.530Z,9.443771
2023-04-27T03:03:38.363Z,9.443785
2023-04-27T03:04:38.378Z,9.443680
2023-04-27T03:05:38.225Z,9.443765
2023-04-27T03:06:38.247Z,9.443709
2023-04-27T03:07:38.275Z,9.443614
2023-04-27T03:08:38.219Z,9.443579
2023-04-27T03:09:38.205Z,9.443773
2023-04-27T03:10:38.214Z,9.443686
2023-04-27T03:11:38.225Z,9.443736
2023-04-27T03:12:38.263Z,9.443868
2023-04-27T03:13:38.210Z,9.443825
2023-04-27T03:14:38.196Z,9.443818
2023-04-27T03:15:38.176Z,9.443665
2023-04-27T03:16:38.230Z,9.443665
2023-04-27T03:17:38.251Z,9.443725
2023-04-27T03:18:38.235Z,9.443724
2023-04-27T03:19:38.193Z,9.443772
2023-04-27T03:20:38.203Z,9.443583
2023-04-27T03:21:38.162Z,9.443495
2023-04-27T03:22:38.203Z,9.443669
2023-04-27T03:23:38.143Z,9.443724
2023-04-27T03:24:38.129Z,9.443601
2023-04-27T03:25:38.121Z,9.443671
2023-04-27T03:26:38.116Z,9.443665
2023-04-27T03:27:38.156Z,9.443583
2023-04-27T03:28:38.130Z,9.443678
2023-04-27T03:29:38.144Z,9.443673
2023-04-27T03:30:38.190Z,9.443597
2023-04-27T03:31:38.159Z,9.443652
2023-04-27T03:32:38.113Z,9.443712
2023-04-27T03:33:38.157Z,9.443655
2023-04-27T03:34:38.134Z,9.443598
2023-04-27T03:35:38.120Z,9.443657
2023-04-27T03:36:38.077Z,9.443645
2023-04-27T03:37:38.143Z,9.443666
2023-04-27T03:38:38.142Z,9.443663
2023-04-27T03:39:38.111Z,9.443700
2023-04-27T03:40:38.082Z,9.443692
2023-04-27T03:41:38.141Z,9.443691
2023-04-27T03:42:38.029Z,9.443653
2023-04-27T03:43:38.080Z,9.443669
2023-04-27T03:44:38.012Z,9.443625
2023-04-27T03:45:38.033Z,9.443670
2023-04-27T03:46:38.057Z,9.443648
2023-04-27T03:47:38.040Z,9.443641
2023-04-27T03:48:37.992Z,9.443669
2023-04-27T03:49:38.051Z,9.443748
2023-04-27T03:50:37.964Z,9.443692
2023-04-27T03:51:37.991Z,9.443652
2023-04-27T03:52:37.961Z,9.443696
2023-04-27T03:53:38.079Z,9.443718
2023-04-27T03:54:38.985Z,9.443705
2023-04-27T03:55:37.973Z,9.443658
2023-04-27T03:56:37.937Z,9.443684
2023-04-27T03:57:37.985Z,9.443724
2023-04-27T03:58:37.922Z,9.443738
2023-04-27T03:59:37.926Z,9.443685
2023-04-27T04:00:37.944Z,9.443685
2023-04-27T04:01:37.941Z,9.443656
2023-04-27T04:02:38.033Z,9.443744
2023-04-27T04:03:38.031Z,9.443715
2023-04-27T04:04:38.103Z,9.443712
2023-04-27T04:05:37.916Z,9.443660
2023-04-27T04:06:37.875Z,9.443754
2023-04-27T04:07:37.886Z,9.443648
2023-04-27T04:08:37.901Z,9.443599
2023-04-27T04:09:37.892Z,9.443629
2023-04-27T04:10:37.899Z,9.443668
2023-04-27T04:11:37.907Z,9.443705
2023-04-27T04:12:37.878Z,9.443604
2023-04-27T04:13:37.837Z,9.443629
2023-04-27T04:14:37.827Z,9.443520
2023-04-27T04:15:37.882Z,9.443580
2023-04-27T04:16:37.863Z,9.443549
2023-04-27T04:17:37.851Z,9.443670
2023-04-27T04:18:37.888Z,9.443774
2023-04-27T04:19:37.824Z,9.443653
2023-04-27T04:20:37.822Z,9.443576
2023-04-27T04:21:37.782Z,9.443591
2023-04-27T04:22:37.814Z,9.443534
2023-04-27T04:23:37.777Z,9.443519
2023-04-27T04:24:37.796Z,9.443660
2023-04-27T04:25:37.800Z,9.443526
2023-04-27T04:26:37.813Z,9.443563
2023-04-27T04:27:37.745Z,9.443638
2023-04-27T04:28:37.763Z,9.443709
2023-04-27T04:29:37.733Z,9.443687
2023-04-27T04:30:37.743Z,9.443671
2023-04-27T04:31:37.806Z,9.443676
2023-04-27T04:32:38.029Z,9.443637
2023-04-27T04:33:37.937Z,9.443733
2023-04-27T04:34:37.724Z,9.443716
2023-04-27T04:35:37.741Z,9.443787
2023-04-27T04:36:38.044Z,9.443693
2023-04-27T04:37:37.748Z,9.443761
2023-04-27T04:38:37.698Z,9.443743
2023-04-27T04:39:37.716Z,9.443721
2023-04-27T04:40:37.708Z,9.443725
2023-04-27T04:41:37.683Z,9.443665
2023-04-27T04:42:37.683Z,9.443670
2023-04-27T04:43:37.665Z,9.443678
2023-04-27T04:44:37.666Z,9.443672
2023-04-27T04:45:37.638Z,9.443629
2023-04-27T04:46:37.810Z,9.443709
2023-04-27T04:47:37.694Z,9.443721
2023-04-27T04:48:37.668Z,9.443705
2023-04-27T04:49:37.650Z,9.443693
2023-04-27T04:50:37.651Z,9.443708
2023-04-27T04:51:37.611Z,9.443783
2023-04-27T04:52:37.609Z,9.443832
2023-04-27T04:53:37.604Z,9.443785
2023-04-27T04:54:37.608Z,9.443754
2023-04-27T04:55:37.669Z,9.443709
2023-04-27T04:56:37.594Z,9.443760
2023-04-27T04:57:37.618Z,9.443729
2023-04-27T04:58:37.638Z,9.443715
2023-04-27T04:59:37.563Z,9.443694
2023-04-27T05:00:37.586Z,9.443716
2023-04-27T05:01:37.698Z,9.443750
2023-04-27T05:02:37.686Z,9.443750
2023-04-27T05:03:37.807Z,9.443759
2023-04-27T05:04:37.696Z,9.443692
2023-04-27T05:05:37.565Z,9.443722
2023-04-27T05:06:37.555Z,9.443718
2023-04-27T05:07:37.543Z,9.443769
2023-04-27T05:08:37.585Z,9.443759
2023-04-27T05:09:37.559Z,9.443760
2023-04-27T05:10:37.518Z,9.443788
2023-04-27T05:11:37.532Z,9.443789
2023-04-27T05:12:37.586Z,9.443805
2023-04-27T05:13:37.519Z,9.443726
2023-04-27T05:14:37.495Z,9.443705
2023-04-27T05:15:37.507Z,9.443785
2023-04-27T05:16:37.710Z,9.443718
2023-04-27T05:17:37.530Z,9.443704
2023-04-27T05:18:37.530Z,9.443670
2023-04-27T05:19:37.470Z,9.443622
2023-04-27T05:20:37.445Z,9.443742
2023-04-27T05:21:37.466Z,9.443703
2023-04-27T05:22:37.525Z,9.443666
2023-04-27T05:23:37.478Z,9.443753
2023-04-27T05:24:37.479Z,9.443764
2023-04-27T05:25:37.423Z,9.443679
2023-04-27T05:26:37.423Z,9.443616
2023-04-27T05:27:37.446Z,9.443648
2023-04-27T05:28:37.408Z,9.443751
2023-04-27T05:29:37.714Z,9.443740
2023-04-27T05:30:37.448Z,9.443765
2023-04-27T05:31:37.472Z,9.443709
2023-04-27T05:32:37.527Z,9.443611
2023-04-27T05:33:37.533Z,9.443579
2023-04-27T05:34:37.349Z,9.443709
2023-04-27T05:35:37.377Z,9.443505
2023-04-27T05:36:37.372Z,9.443366
2023-04-27T05:37:37.363Z,9.443523
2023-04-27T05:38:37.365Z,9.443604
2023-04-27T05:39:37.343Z,9.443676
2023-04-27T05:40:37.334Z,9.443676
2023-04-27T05:41:37.337Z,9.443661
2023-04-27T05:42:37.356Z,9.443625
2023-04-27T05:43:37.317Z,9.443604
2023-04-27T05:44:37.291Z,9.443698
2023-04-27T05:45:37.386Z,9.443705
2023-04-27T05:46:38.794Z,9.443711
2023-04-27T05:47:38.345Z,9.443707
2023-04-27T05:48:37.277Z,9.443692
2023-04-27T05:49:37.358Z,9.443694
2023-04-27T05:50:37.294Z,9.443738
2023-04-27T05:51:37.281Z,9.443663
2023-04-27T05:52:38.325Z,9.443621
2023-04-27T05:53:37.299Z,9.443604
2023-04-27T05:54:37.329Z,9.443608
2023-04-27T05:55:37.316Z,9.443643
2023-04-27T05:56:37.237Z,9.443674
2023-04-27T05:57:37.230Z,9.443725
2023-04-27T05:58:37.245Z,9.443659
2023-04-27T05:59:37.217Z,9.443670
2023-04-27T06:00:37.225Z,9.443649
2023-04-27T06:01:37.208Z,9.443545
2023-04-27T06:02:37.316Z,9.443695
2023-04-27T06:03:37.319Z,9.443698
2023-04-27T06:04:37.310Z,9.443683
2023-04-27T06:05:37.270Z,9.443687
2023-04-27T06:06:37.175Z,9.443656
2023-04-27T06:07:37.186Z,9.443676
2023-04-27T06:08:37.190Z,9.443668
2023-04-27T06:09:37.290Z,9.443697
2023-04-27T06:10:38.207Z,9.443681
2023-04-27T06:11:37.170Z,9.443697
2023-04-27T06:12:37.151Z,9.443664
2023-04-27T06:13:37.163Z,9.443727
2023-04-27T06:14:37.111Z,9.443654
2023-04-27T06:15:37.192Z,9.443675
2023-04-27T06:16:37.108Z,9.443712
2023-04-27T06:17:38.172Z,9.443703
2023-04-27T06:18:37.136Z,9.443671
2023-04-27T06:19:37.218Z,9.443674
2023-04-27T06:20:37.088Z,9.443671
2023-04-27T06:21:37.111Z,9.443663
2023-04-27T06:22:37.089Z,9.443681
2023-04-27T06:23:37.077Z,9.443654
2023-04-27T06:24:37.065Z,9.443683
2023-04-27T06:25:37.075Z,9.443653
2023-04-27T06:26:37.060Z,9.443656
2023-04-27T06:27:37.085Z,9.443686
2023-04-27T06:28:37.058Z,9.443690
2023-04-27T06:29:37.057Z,9.443682
2023-04-27T06:30:38.287Z,9.443688
2023-04-27T06:31:38.063Z,9.443657
2023-04-27T06:32:37.066Z,9.443652
2023-04-27T06:33:37.026Z,9.443679
2023-04-27T06:34:36.994Z,9.443681
2023-04-27T06:35:37.017Z,9.443661
2023-04-27T06:36:36.975Z,9.443715
2023-04-27T06:37:36.989Z,9.443725
2023-04-27T06:38:36.999Z,9.443734
2023-04-27T06:39:37.000Z,9.443699
2023-04-27T06:40:37.005Z,9.443644
2023-04-27T06:41:36.986Z,9.443687
2023-04-27T06:42:36.950Z,9.443724
2023-04-27T06:43:36.986Z,9.443705
2023-04-27T06:44:36.994Z,9.443662
2023-04-27T06:45:36.939Z,9.443786
2023-04-27T06:46:37.015Z,9.443734
2023-04-27T06:47:36.907Z,9.443687
2023-04-27T06:48:36.927Z,9.443569
2023-04-27T06:49:36.908Z,9.443701
2023-04-27T06:50:36.946Z,9.443698
2023-04-27T06:51:36.925Z,9.443736
2023-04-27T06:52:36.903Z,9.443780
2023-04-27T06:53:36.943Z,9.443778
2023-04-27T06:54:36.905Z,9.443686
2023-04-27T06:55:36.914Z,9.443677
2023-04-27T06:56:36.900Z,9.443754
2023-04-27T06:57:36.946Z,9.443680
2023-04-27T06:58:36.850Z,9.443682
2023-04-27T06:59:36.866Z,9.443677
2023-04-27T07:00:36.859Z,9.443590
2023-04-27T07:01:36.926Z,9.443640
2023-04-27T07:02:36.998Z,9.443706
2023-04-27T07:03:37.076Z,9.443643
2023-04-27T07:04:36.870Z,9.443735
2023-04-27T07:05:36.908Z,9.443772
2023-04-27T07:06:36.810Z,9.443761
2023-04-27T07:07:36.886Z,9.443754
2023-04-27T07:08:36.894Z,9.443707
2023-04-27T07:09:36.818Z,9.443666
2023-04-27T07:10:36.784Z,9.443760
2023-04-27T07:11:36.781Z,9.443671
2023-04-27T07:12:36.797Z,9.443541
2023-04-27T07:13:36.797Z,9.443538
2023-04-27T07:14:36.759Z,9.443560
2023-04-27T07:15:36.962Z,9.443544
2023-04-27T07:16:36.950Z,9.443686
2023-04-27T07:18:11.756Z,9.443685
2023-04-27T07:19:11.896Z,9.443624
2023-04-27T07:20:11.780Z,9.443652
2023-04-27T07:21:14.779Z,9.443661
2023-04-27T07:22:13.766Z,9.443702
2023-04-27T07:22:36.826Z,9.443639
2023-04-27T07:24:14.677Z,9.443662
2023-04-27T07:24:36.853Z,9.443699
2023-04-27T07:26:11.723Z,9.443631
2023-04-27T07:27:11.724Z,9.443635
2023-04-27T07:28:11.414Z,9.443686
2023-04-27T07:29:26.377Z,9.443768
2023-04-27T07:29:37.808Z,9.443723
2023-04-27T07:31:12.790Z,9.443765
2023-04-27T07:31:36.868Z,9.443705
2023-04-27T07:33:11.967Z,9.443805
2023-04-27T07:34:16.706Z,9.443731
2023-04-27T07:34:48.943Z,9.443828
2023-04-27T07:41:38.582Z,9.443708
2023-04-27T07:42:37.922Z,9.443704
2023-04-27T07:43:37.906Z,9.443698
2023-04-27T07:44:37.891Z,9.443603
2023-04-27T07:45:37.911Z,9.443790
2023-04-27T07:46:37.853Z,9.443784
2023-04-27T07:47:37.922Z,9.443732
2023-04-27T07:48:37.850Z,9.443725
2023-04-27T07:49:37.866Z,9.443722
2023-04-27T07:50:37.833Z,9.443730
2023-04-27T07:51:37.847Z,9.443730
2023-04-27T07:52:37.887Z,9.443663
2023-04-27T07:53:37.807Z,9.443604
2023-04-27T07:54:37.821Z,9.443640
2023-04-27T07:55:37.808Z,9.443597
2023-04-27T07:56:37.824Z,9.443789
2023-04-27T07:57:37.849Z,9.443726
2023-04-27T07:58:37.796Z,9.443613
2023-04-27T07:59:37.769Z,9.443676
2023-04-27T08:00:37.877Z,9.443754
2023-04-27T08:01:37.812Z,9.443708
2023-04-27T08:02:37.900Z,9.443623
2023-04-27T08:03:38.112Z,9.443690
2023-04-27T08:04:38.235Z,9.443678
2023-04-27T08:05:37.842Z,9.443672
2023-04-27T08:06:38.258Z,9.443669
2023-04-27T08:07:44.116Z,9.443688
2023-04-27T08:08:39.745Z,9.443670
2023-04-27T08:09:37.721Z,9.443640
2023-04-27T08:10:37.703Z,9.443726
2023-04-27T08:11:37.730Z,9.443707
2023-04-27T08:12:37.735Z,9.443689
2023-04-27T08:13:37.723Z,9.443697
2023-04-27T08:14:37.678Z,9.443719
2023-04-27T08:15:37.702Z,9.443709
2023-04-27T08:16:37.850Z,9.443808
2023-04-27T08:17:37.691Z,9.443732
2023-04-27T08:18:37.730Z,9.443704
2023-04-27T08:19:37.710Z,9.443775
2023-04-27T08:20:37.633Z,9.443742
2023-04-27T08:21:37.685Z,9.443709
2023-04-27T08:22:37.638Z,9.443704
2023-04-27T08:23:37.647Z,9.443721
2023-04-27T08:24:37.650Z,9.443681
2023-04-27T08:25:37.663Z,9.443745
2023-04-27T08:26:37.641Z,9.443699
2023-04-27T08:27:37.617Z,9.443772
2023-04-27T08:28:37.656Z,9.443682
2023-04-27T08:29:37.602Z,9.443622
2023-04-27T08:30:37.623Z,9.443566
2023-04-27T08:31:37.723Z,9.443705
2023-04-27T08:32:37.764Z,9.443740
2023-04-27T08:33:37.587Z,9.443695
2023-04-27T08:34:37.604Z,9.443684
2023-04-27T08:35:37.714Z,9.443718
2023-04-27T08:36:37.705Z,9.443723
2023-04-27T08:37:37.557Z,9.443751
2023-04-27T08:38:37.569Z,9.443733
2023-04-27T08:39:37.594Z,9.443771
2023-04-27T08:40:37.522Z,9.443770
2023-04-27T08:41:37.681Z,9.443815
2023-04-27T08:42:37.485Z,9.443716
2023-04-27T08:43:37.522Z,9.443752
2023-04-27T08:44:38.599Z,9.443705
2023-04-27T08:45:37.487Z,9.443777
2023-04-27T08:46:37.515Z,9.443755
2023-04-27T08:47:43.279Z,9.443739
2023-04-27T08:48:39.540Z,9.443721
2023-04-27T08:49:37.602Z,9.443725
2023-04-27T08:50:37.501Z,9.443803
2023-04-27T08:51:37.847Z,9.443795
2023-04-27T08:52:37.736Z,9.443794
2023-04-27T08:53:37.578Z,9.443739
2023-04-27T08:54:37.549Z,9.443735
2023-04-27T08:55:37.456Z,9.443766
2023-04-27T08:56:37.432Z,9.443765
2023-04-27T08:57:37.500Z,9.443793
2023-04-27T08:58:37.412Z,9.443852
2023-04-27T08:59:37.422Z,9.443800
2023-04-27T09:00:37.385Z,9.443823
2023-04-27T09:01:37.580Z,9.443628
2023-04-27T09:02:37.481Z,9.443682
2023-04-27T09:03:37.552Z,9.443829
2023-04-27T09:04:37.637Z,9.443545
2023-04-27T09:05:37.456Z,9.443664
2023-04-27T09:06:37.454Z,9.443715
2023-04-27T09:07:37.398Z,9.443877
2023-04-27T09:08:37.435Z,9.443761
2023-04-27T09:09:37.355Z,9.443688
2023-04-27T09:10:37.343Z,9.443851
2023-04-27T09:11:37.361Z,9.443745
2023-04-27T09:12:37.390Z,9.443743
2023-04-27T09:13:37.327Z,9.443906
2023-04-27T09:14:37.974Z,9.443718
2023-04-27T09:15:37.402Z,9.443819
2023-04-27T09:16:37.458Z,9.443781
2023-04-27T09:17:37.338Z,9.443880
2023-04-27T09:18:37.323Z,9.443930
2023-04-27T09:19:37.376Z,9.443840
2023-04-27T09:20:37.330Z,9.443786
2023-04-27T09:21:37.310Z,9.444024
2023-04-27T09:22:37.269Z,9.443948
2023-04-27T09:23:37.488Z,9.443907
2023-04-27T09:28:21.792Z,9.444072
2023-04-27T09:29:57.672Z,9.443868
2023-04-27T09:30:22.648Z,9.443889
2023-04-27T09:31:21.663Z,9.444196
2023-04-27T09:32:21.762Z,9.444178
2023-04-27T09:33:21.530Z,9.444257
2023-04-27T09:34:21.532Z,9.444004
2023-04-27T09:35:21.817Z,9.444058
2023-04-27T09:36:21.732Z,9.444256
2023-04-27T09:37:21.531Z,9.444293
2023-04-27T09:38:21.579Z,9.444394
2023-04-27T09:39:21.762Z,9.444040
2023-04-27T09:40:21.509Z,9.443935
2023-04-27T09:41:21.807Z,9.443827
2023-04-27T09:42:21.689Z,9.443913
2023-04-27T09:43:21.599Z,9.443782
2023-04-27T09:44:21.565Z,9.443841
2023-04-27T09:45:21.611Z,9.443775
2023-04-27T09:46:21.628Z,9.443739
2023-04-27T09:47:21.665Z,9.443706
2023-04-27T09:48:21.550Z,9.443779
2023-04-27T09:49:21.758Z,9.443672
2023-04-27T09:50:21.461Z,9.443727
2023-04-27T09:51:21.475Z,9.443780
2023-04-27T09:52:21.568Z,9.443762
2023-04-27T09:53:21.595Z,9.443766
2023-04-27T09:54:21.592Z,9.443791
2023-04-27T09:55:21.512Z,9.443798
2023-04-27T09:56:22.409Z,9.443854
2023-04-27T09:57:21.418Z,9.443812
2023-04-27T09:58:21.404Z,9.443789
2023-04-27T09:59:21.437Z,9.443793
2023-04-27T10:00:21.410Z,9.443843
2023-04-27T10:01:21.469Z,9.443849
2023-04-27T10:02:25.135Z,9.443800
2023-04-27T10:03:23.243Z,9.443731
2023-04-27T10:04:22.001Z,9.443731
2023-04-27T10:05:21.656Z,9.443716
2023-04-27T10:06:21.490Z,9.443747
2023-04-27T10:07:21.486Z,9.443826
2023-04-27T10:08:21.410Z,9.443898
2023-04-27T10:09:21.951Z,9.443856
2023-04-27T10:10:21.629Z,9.443751
2023-04-27T10:11:21.344Z,9.443781
2023-04-27T10:12:21.426Z,9.443811
2023-04-27T10:13:21.416Z,9.443885
2023-04-27T10:14:21.594Z,9.443859
2023-04-27T10:15:21.353Z,9.443885
2023-04-27T10:16:21.535Z,9.443910
2023-04-27T10:17:21.263Z,9.443869
2023-04-27T10:18:21.432Z,9.443785
2023-04-27T10:19:21.345Z,9.443752
2023-04-27T10:20:21.893Z,9.443860
2023-04-27T10:21:23.188Z,9.443818
2023-04-27T10:22:21.301Z,9.443797
2023-04-27T10:23:21.399Z,9.443830
2023-04-27T10:24:21.325Z,9.443744
2023-04-27T10:25:21.278Z,9.443761
2023-04-27T10:26:21.216Z,9.443728
2023-04-27T10:27:21.181Z,9.443733
2023-04-27T10:28:21.207Z,9.443765
2023-04-27T10:29:21.187Z,9.443779
2023-04-27T10:30:21.221Z,9.443753
2023-04-27T10:31:21.192Z,9.443785
2023-04-27T10:32:21.161Z,9.443795
2023-04-27T10:33:21.163Z,9.443769
2023-04-27T10:34:21.596Z,9.443798
2023-04-27T10:35:22.175Z,9.443769
2023-04-27T10:36:21.130Z,9.443781
2023-04-27T10:37:21.197Z,9.443759
2023-04-27T10:38:21.314Z,9.443757
2023-04-27T10:39:25.578Z,9.443740
2023-04-27T10:40:22.111Z,9.443742
2023-04-27T10:41:21.202Z,9.443767
2023-04-27T10:42:21.131Z,9.443769
2023-04-27T10:43:21.055Z,9.443731
2023-04-27T10:44:21.059Z,9.443679
2023-04-27T10:45:21.225Z,9.443693
2023-04-27T10:46:21.115Z,9.443662
2023-04-27T10:47:21.064Z,9.443666
2023-04-27T10:48:21.056Z,9.443695
2023-04-27T10:49:21.960Z,9.443719
2023-04-27T10:50:21.133Z,9.443717
2023-04-27T10:51:22.159Z,9.443706
2023-04-27T10:52:21.073Z,9.443710
2023-04-27T10:53:21.076Z,9.443684
2023-04-27T10:54:21.024Z,9.443765
2023-04-27T10:55:21.020Z,9.443758
2023-04-27T10:56:21.036Z,9.443727
2023-04-27T10:57:21.034Z,9.443746
2023-04-27T10:58:20.982Z,9.443750
2023-04-27T10:59:20.986Z,9.443732
2023-04-27T11:00:20.971Z,9.443711
2023-04-27T11:01:20.995Z,9.443713
2023-04-27T11:02:21.023Z,9.443740
2023-04-27T11:03:21.064Z,9.443701
2023-04-27T11:04:21.074Z,9.443692
2023-04-27T11:05:21.021Z,9.443749
2023-04-27T11:06:21.333Z,9.443746
2023-04-27T11:07:21.148Z,9.443680
2023-04-27T11:08:22.082Z,9.443642
2023-04-27T11:09:21.281Z,9.443769
2023-04-27T11:10:21.046Z,9.443770
2023-04-27T11:11:20.988Z,9.443681
2023-04-27T11:12:20.887Z,9.443715
2023-04-27T11:13:20.913Z,9.443810
2023-04-27T11:14:20.932Z,9.443849
2023-04-27T11:15:20.915Z,9.443725
2023-04-27T11:16:21.019Z,9.443665
2023-04-27T11:17:20.896Z,9.443677
2023-04-27T11:18:20.924Z,9.443768
2023-04-27T11:19:20.867Z,9.443746
2023-04-27T11:20:20.879Z,9.443738
2023-04-27T11:21:20.855Z,9.443753
2023-04-27T11:22:20.825Z,9.443717
2023-04-27T11:23:20.833Z,9.443714
2023-04-27T11:24:20.823Z,9.443715
2023-04-27T11:25:20.837Z,9.443688
2023-04-27T11:26:20.814Z,9.443723
2023-04-27T11:27:20.772Z,9.443711
2023-04-27T11:28:20.843Z,9.443784
2023-04-27T11:29:20.779Z,9.443699
2023-04-27T11:30:20.795Z,9.443748
2023-04-27T11:31:20.806Z,9.443779
2023-04-27T11:32:20.751Z,9.443751
2023-04-27T11:33:20.821Z,9.443674
2023-04-27T11:34:20.774Z,9.443657
2023-04-27T11:35:20.746Z,9.443696
2023-04-27T11:36:20.721Z,9.443617
2023-04-27T11:37:20.741Z,9.443538
2023-04-27T11:38:20.843Z,9.443560
2023-04-27T11:39:20.794Z,9.443574
2023-04-27T11:40:22.680Z,9.443632
2023-04-27T11:41:20.831Z,9.443548
2023-04-27T11:42:21.097Z,9.443565
2023-04-27T11:43:21.278Z,9.443641
2023-04-27T11:44:20.880Z,9.443699
2023-04-27T11:45:21.149Z,9.443727
2023-04-27T11:46:23.461Z,9.443669
2023-04-27T11:47:21.318Z,9.443753
2023-04-27T11:48:20.865Z,9.443763
2023-04-27T11:49:22.099Z,9.443730
2023-04-27T11:50:20.903Z,9.443772
2023-04-27T11:51:21.553Z,9.443697
2023-04-27T11:52:20.990Z,9.443631
2023-04-27T11:53:21.022Z,9.443634
2023-04-27T11:54:20.834Z,9.443645